• Join FlightAware (Why Join?)
  • Login
  • US Flag 
05:53AM EDT


 

Airport Tracker/Info


-or-


 

Live Flight TrackerFlight Track Log ✈ N430WC ✈ 07-Jan-2014 ✈ KUAO - KABE

Flight Track Log - Related Links

Times and Time Zones

All times are in EST time to prevent confusion due to time zone crossing. See the N430WC flight status page for this flight to view local times or setup timezone preferences in your user account.

Time Position Orientation Groundspeed Altitude Reporting Facility
EST Latitude Longitude Course Direction KTS MPH feet Rate Location/Type
04:05PM 45.2831 -122.7642 81° East 190 219 1,700  Level Seattle Center
04:06PM 45.2825 -122.6539 90° East 257 296 4,000 1,440 Climbing Seattle Center
04:06PM 45.2889 -122.6228 74° East 260 299 4,100 2,400 Climbing Seattle Center
04:07PM 45.3506 -122.5353 45° Northeast 295 339 7,200 3,540 Climbing Seattle Center
04:08PM 45.3840 -121.5524 80° East  Level Estimated
04:08PM 45.4125 -122.4419 47° Northeast 323 372 11,400  Level Seattle Center
04:09PM 45.4056 -121.3489 81° East  Level Estimated
04:09PM 45.4781 -122.3489 45° Northeast 335 386 14,800  Level Seattle Center
04:10PM 45.4268 -121.1453 81° East  Level Estimated
04:10PM 45.5542 -122.2394 45° Northeast 361 415 16,400  Level Seattle Center
04:11PM 45.5744 -122.1075 78° East 365 420 19,000 2,460 Climbing Seattle Center
04:12PM 45.5839 -121.9528 85° East 384 442 21,400 2,160 Climbing Seattle Center
04:13PM 45.5931 -121.7817 86° East 413 475 23,400 1,860 Climbing Seattle Center
04:14PM 45.6042 -121.6061 85° East 439 505 25,300 1,860 Climbing Seattle Center
04:15PM 45.6156 -121.4272 85° East 451 519 27,200 1,920 Climbing Seattle Center
04:16PM 45.6256 -121.2442 85° East 460 529 29,300 1,800 Climbing Seattle Center
04:18PM 45.6461 -120.8794 85° East 462 532 32,700 1,440 Climbing Seattle Center
04:19PM 45.6553 -120.6908 86° East 473 544 33,700 900 Climbing Seattle Center
04:20PM 45.6661 -120.4967 85° East 486 559 34,600 900 Climbing Seattle Center
04:22PM 45.6750 -120.2986 86° East 496 571 35,600 960 Climbing Seattle Center
04:23PM 45.6844 -120.0992 86° East 500 575 36,600 1,080 Climbing Seattle Center
04:24PM 45.6947 -119.8994 86° East 501 577 37,800 1,080 Climbing Seattle Center
04:25PM 45.7028 -119.7014 87° East 500 575 38,800 540 Climbing Seattle Center
04:26PM 45.7122 -119.5036 86° East 499 574 39,000 60 Climbing Seattle Center
04:27PM 45.7206 -119.3033 87° East 503 579 39,000  Level Seattle Center
04:28PM 45.7294 -119.1042 86° East 502 578 39,000  Level Seattle Center
04:29PM 45.7369 -118.9025 87° East 507 583 39,000  Level Seattle Center
04:30PM 45.7442 -118.7000 87° East 509 586 39,000  Level Seattle Center
04:31PM 45.7517 -118.4850 87° East 507 583 39,000  Level Seattle Center
04:32PM 45.7583 -118.2881 87° East 501 577 39,000  Level Seattle Center
04:33PM 45.7633 -118.0894 88° East 501 577 39,000  Level Seattle Center
04:34PM 45.7697 -117.8889 87° East 505 581 39,000  Level Seattle Center
04:35PM 45.7750 -117.6897 88° East 504 580 39,000  Level Seattle Center
04:36PM 45.7814 -117.4486 88° East 508 585 39,000  Level Seattle Center
04:37PM 45.7861 -117.2478 88° East 508 585 39,000  Level Seattle Center
04:38PM 45.7900 -117.0456 88° East 510 587 39,000  Level Seattle Center
04:39PM 45.7933 -116.8419 89° East 513 590 39,000  Level Seattle Center
04:40PM 45.7975 -116.6375 88° East 515 593 39,000  Level Seattle Center
04:41PM 45.8011 -116.4344 88° East 514 592 39,000  Level Seattle Center
04:42PM 45.8036 -116.2339 89° East 508 585 39,000  Level Seattle Center
04:43PM 45.8064 -116.0314 89° East 511 588 39,000  Level Seattle Center
04:44PM 45.8083 -115.8294 89° East 510 587 39,000  Level Seattle Center
04:45PM 45.8111 -115.6233 89° East 518 596 39,000  Level Seattle Center
04:46PM 45.8125 -115.3886 89° East 510 587 39,000  Level Seattle Center
04:47PM 45.8133 -115.1842 90° East 511 588 39,000  Level Seattle Center
04:48PM 45.8147 -114.9800 89° East 511 588 39,000  Level Seattle Center
04:49PM 45.8144 -114.7753 90° East 513 590 39,000  Level Seattle Center
04:50PM 45.8144 -114.5703 90° East 507 583 39,000  Level Seattle Center
04:51PM 45.8133 -114.3656 90° East 512 589 39,000  Level Seattle Center
04:52PM 45.8125 -114.1617 90° East 514 592 39,000  Level Seattle Center
04:53PM 45.8122 -113.9392 90° East 514 592 39,000  Level Seattle Center
04:54PM 45.8114 -113.7381 90° East 511 588 39,000  Level Seattle Center
04:55PM 45.8078 -113.4636 91° East 513 590 39,000  Level Salt Lake Center
04:56PM 45.8056 -113.2572 91° East 509 586 39,000  Level Salt Lake Center
04:57PM 45.8036 -113.0514 91° East 507 583 39,000  Level Salt Lake Center
04:58PM 45.8017 -112.8467 91° East 506 582 39,000  Level Salt Lake Center
04:59PM 45.7964 -112.6431 92° East 504 580 39,000  Level Salt Lake Center
05:00PM 45.7933 -112.4394 91° East 504 580 39,000  Level Salt Lake Center
05:01PM 45.7897 -112.2358 91° East 504 580 39,000  Level Salt Lake Center
05:02PM 45.7844 -112.0311 92° East 506 582 39,000  Level Salt Lake Center
05:03PM 45.7797 -111.8258 92° East 507 583 39,000  Level Salt Lake Center
05:05PM 45.7747 -111.6242 92° East 500 575 39,000  Level Salt Lake Center
05:06PM 45.7694 -111.4219 92° East 499 574 39,000  Level Salt Lake Center
05:07PM 45.7625 -111.2153 93° East 499 574 39,000  Level Salt Lake Center
05:08PM 45.7581 -111.0272 92° East 494 568 39,000  Level Salt Lake Center
05:09PM 45.7503 -110.8069 93° East 505 581 39,000  Level Salt Lake Center
05:10PM 45.7431 -110.6053 93° East 500 575 39,000  Level Salt Lake Center
05:11PM 45.7364 -110.4139 93° East 493 567 39,000  Level Salt Lake Center
05:12PM 45.7283 -110.2150 93° East 499 574 39,000  Level Salt Lake Center
05:13PM 45.7206 -110.0136 93° East 506 582 39,000  Level Salt Lake Center
05:14PM 45.7131 -109.8161 93° East 502 578 39,000  Level Salt Lake Center
05:15PM 45.7047 -109.6167 93° East 499 574 39,000  Level Salt Lake Center
05:16PM 45.6961 -109.4200 94° East 495 570 39,000  Level Salt Lake Center
05:17PM 45.6844 -109.1825 94° East 499 574 39,000  Level Salt Lake Center
05:18PM 45.6747 -108.9831 94° East 502 578 39,000  Level Salt Lake Center
05:19PM 45.6656 -108.7839 94° East 503 579 39,000  Level Salt Lake Center
05:20PM 45.6553 -108.5861 94° East 499 574 39,000  Level Salt Lake Center
05:21PM 45.6442 -108.3867 94° East 503 579 39,000  Level Salt Lake Center
05:22PM 45.6331 -108.1889 95° East 499 574 39,000  Level Salt Lake Center
05:23PM 45.6211 -107.9875 95° East 506 582 39,000  Level Salt Lake Center
05:24PM 45.6089 -107.7914 95° East 497 572 39,000  Level Salt Lake Center
05:25PM 45.5975 -107.5922 95° East 502 578 39,000  Level Salt Lake Center
05:26PM 45.5844 -107.3947 95° East 500 575 39,000  Level Salt Lake Center
05:27PM 45.5689 -107.1556 95° East 503 579 39,000  Level Salt Lake Center
05:28PM 45.5556 -106.9544 95° East 507 583 39,000  Level Salt Lake Center
05:29PM 45.5408 -106.7547 96° East 507 583 39,000  Level Salt Lake Center
05:30PM 45.5292 -106.5572 95° East 504 580 39,000  Level Salt Lake Center
05:31PM 45.5147 -106.3586 96° East 504 580 39,000  Level Salt Lake Center
05:32PM 45.5000 -106.1583 96° East 507 583 39,000  Level Salt Lake Center
05:33PM 45.4847 -105.9603 96° East 506 582 39,000  Level Salt Lake Center
05:34PM 45.4692 -105.7603 96° East 507 583 39,000  Level Salt Lake Center
05:35PM 45.4542 -105.5614 96° East 507 583 39,000  Level Salt Lake Center
05:36PM 45.4339 -105.3178 97° East 514 592 39,000  Level Salt Lake Center
05:37PM 45.4172 -105.1172 97° East 514 592 39,000  Level Salt Lake Center
05:38PM 45.3997 -104.9161 97° East 512 589 39,000  Level Salt Lake Center
05:39PM 45.3825 -104.7150 97° East 513 590 39,000  Level Salt Lake Center
05:40PM 45.3653 -104.5122 97° East 515 593 39,000  Level Salt Lake Center
05:41PM 45.3461 -104.3114 98° East 516 594 39,000  Level Salt Lake Center
05:42PM 45.3267 -104.1064 98° East 519 597 39,000  Level Salt Lake Center
05:43PM 45.3081 -103.9031 97° East 521 600 39,000  Level Salt Lake Center
05:44PM 45.2892 -103.7014 98° East 520 598 39,000  Level Salt Lake Center
05:45PM 45.2650 -103.4606 98° East 518 596 39,000  Level Salt Lake Center
05:46PM 45.2450 -103.2636 98° East 514 592 39,000  Level Salt Lake Center
05:48PM 45.2253 -103.0625 98° East 514 592 39,000  Level Salt Lake Center
05:49PM 45.2033 -102.8611 99° East 517 595 39,000 -60 Level Salt Lake Center
05:50PM 45.1831 -102.6592 98° East 518 596 38,900  Descending Salt Lake Center
05:51PM 45.1614 -102.4578 99° East 520 598 39,000  Climbing Salt Lake Center
05:52PM 45.1394 -102.2578 99° East 518 596 39,000  Level Salt Lake Center
05:53PM 45.1172 -102.0567 99° East 519 597 39,000  Level Salt Lake Center
05:54PM 45.0900 -101.8158 99° East 519 597 39,000  Level Salt Lake Center
05:55PM 45.0672 -101.5908 98° East 521 600 39,000  Level Minneapolis Center
05:56PM 45.0528 -101.3881 96° East 520 598 39,000  Level Minneapolis Center
05:57PM 45.0311 -101.1447 97° East 521 600 39,000  Level Minneapolis Center
05:58PM 45.0167 -100.9408 96° East 524 603 39,000  Level Minneapolis Center
05:59PM 44.9992 -100.7367 97° East 525 604 39,000  Level Minneapolis Center
06:00PM 44.9806 -100.5339 97° East 524 603 39,000  Level Minneapolis Center
06:01PM 44.9622 -100.3319 97° East 523 602 39,000  Level Minneapolis Center
06:02PM 44.9433 -100.1303 97° East 525 604 39,000  Level Minneapolis Center
06:03PM 44.9219 -99.8939 97° East 524 603 39,000  Level Minneapolis Center
06:04PM 44.9011 -99.6919 98° East 529 609 39,000  Level Minneapolis Center
06:05PM 44.8811 -99.4883 98° East 530 610 39,000  Level Minneapolis Center
06:06PM 44.8614 -99.2839 98° East 530 610 39,000  Level Minneapolis Center
06:07PM 44.8408 -99.0794 98° East 530 610 39,000  Level Minneapolis Center
06:08PM 44.8192 -98.8739 98° East 532 612 39,000  Level Minneapolis Center
06:09PM 44.7936 -98.6286 98° East 530 610 39,000  Level Minneapolis Center
06:10PM 44.7719 -98.4250 98° East 529 609 39,000  Level Minneapolis Center
06:11PM 44.7536 -98.2383 98° East 532 612 39,000  Level Minneapolis Center
06:12PM 44.7308 -98.0328 99° East 534 615 39,000  Level Minneapolis Center
06:13PM 44.7078 -97.8289 99° East 530 610 39,000  Level Minneapolis Center
06:14PM 44.6783 -97.5839 100° East 530 610 39,000  Level Minneapolis Center
06:15PM 44.6542 -97.3808 99° East 528 608 39,000  Level Minneapolis Center
06:16PM 44.6300 -97.1778 99° East 528 608 39,000  Level Minneapolis Center
06:17PM 44.6056 -96.9744 100° East 530 610 39,000  Level Minneapolis Center
06:18PM 44.5814 -96.7706 99° East 529 609 39,000  Level Minneapolis Center
06:20PM 44.5553 -96.5642 100° East 533 613 39,000  Level Minneapolis Center
06:21PM 44.5283 -96.3569 100° East 536 617 39,000  Level Minneapolis Center
06:22PM 44.5028 -96.1508 100° East 534 615 39,000  Level Minneapolis Center
06:23PM 44.4761 -95.9447 100° East 532 612 39,000  Level Minneapolis Center
06:24PM 44.4467 -95.7381 101° East 536 617 39,000  Level Minneapolis Center
06:25PM 44.4172 -95.5325 101° East 537 618 39,000  Level Minneapolis Center
06:26PM 44.3806 -95.2850 102° East 541 623 39,000  Level Minneapolis Center
06:27PM 44.3489 -95.0786 102° East 543 625 39,000  Level Minneapolis Center
06:28PM 44.3181 -94.8728 102° East 541 623 39,000  Level Minneapolis Center
06:29PM 44.2878 -94.6669 102° East 542 624 39,000  Level Minneapolis Center
06:30PM 44.2539 -94.4450 102° East 545 627 39,000  Level Minneapolis Center
06:31PM 44.2219 -94.2411 102° East 542 624 39,000  Level Minneapolis Center
06:32PM 44.1903 -94.0364 102° East 543 625 39,000  Level Minneapolis Center
06:33PM 44.1567 -93.8303 103° East 548 631 39,000  Level Minneapolis Center
06:34PM 44.1244 -93.6247 102° East 548 631 39,000  Level Minneapolis Center
06:35PM 44.0897 -93.4189 103° East 550 633 39,000  Level Minneapolis Center
06:36PM 44.0561 -93.2136 103° East 549 632 39,000  Level Minneapolis Center
06:37PM 44.0147 -92.9683 103° East 547 629 39,000  Level Minneapolis Center
06:38PM 43.9800 -92.7642 103° East 548 631 39,000  Level Minneapolis Center
06:39PM 43.9450 -92.5594 103° East 548 631 39,000  Level Minneapolis Center
06:40PM 43.9092 -92.3564 104° East 547 629 39,000  Level Minneapolis Center
06:41PM 43.8744 -92.1511 103° East 549 632 39,000  Level Minneapolis Center
06:42PM 43.8367 -91.9467 104° East 550 633 39,000  Level Minneapolis Center
06:43PM 43.7986 -91.7275 103° East 552 635 39,000  Level Minneapolis Center
06:44PM 43.7611 -91.5233 104° East 550 633 39,000  Level Minneapolis Center
06:45PM 43.7239 -91.3181 104° East 549 632 39,000  Level Minneapolis Center
06:46PM 43.6856 -91.1128 104° East 550 633 39,000  Level Minneapolis Center
06:47PM 43.6403 -90.8678 104° East 551 634 39,000  Level Minneapolis Center
06:48PM 43.6161 -90.7444 105° East 550 633 39,000  Level Chicago Center
06:49PM 43.5767 -90.5400 105° East 551 634 39,000  Level Chicago Center
06:50PM 43.5369 -90.3356 105° East 553 636 39,000  Level Chicago Center
06:51PM 43.4881 -90.0925 105° East 550 633 39,000  Level Chicago Center
06:52PM 43.4483 -89.8878 105° East 555 639 39,000  Level Chicago Center
06:53PM 43.4075 -89.6825 105° East 558 642 39,000  Level Chicago Center
06:54PM 43.3656 -89.4789 106° East 557 641 39,000  Level Chicago Center
06:55PM 43.3247 -89.2736 105° East 558 642 39,000  Level Chicago Center
06:56PM 43.2831 -89.0697 106° East 559 643 39,000  Level Chicago Center
06:57PM 43.2408 -88.8664 106° East 560 644 39,000  Level Chicago Center
06:58PM 43.1897 -88.6244 106° East 560 644 39,000  Level Chicago Center
06:59PM 43.1472 -88.4239 106° East 560 644 39,000  Level Chicago Center
07:00PM 43.1089 -88.2203 104° East 561 646 39,000  Level Chicago Center
07:01PM 43.0881 -88.0111 98° East 564 649 39,000  Level Chicago Center
07:02PM 43.0661 -87.7994 98° East 563 648 39,000  Level Chicago Center
07:03PM 43.0372 -87.5522 99° East 555 639 39,000  Level Chicago Center
07:04PM 43.0167 -87.3692 99° East 560 644 39,000  Level Chicago Center
07:05PM 42.9942 -87.1608 98° East 559 643 39,000  Level Chicago Center
07:06PM 42.9642 -86.9103 99° East 559 643 39,000  Level Chicago Center
07:07PM 42.9389 -86.7008 99° East 560 644 39,000  Level Chicago Center
07:08PM 42.9128 -86.4922 100° East 561 646 39,000  Level Chicago Center
07:09PM 42.8869 -86.2856 100° East 559 643 39,000  Level Chicago Center
07:10PM 42.8611 -86.0792 100° East 563 648 39,000  Level Chicago Center
07:11PM 42.8347 -85.8764 100° East 558 642 39,000  Level Chicago Center
07:13PM 42.8028 -85.6267 100° East 564 649 39,000  Level Chicago Center
07:14PM 42.7750 -85.4197 100° East 563 648 39,000  Level Chicago Center
07:15PM 42.7472 -85.2106 100° East 564 649 39,000  Level Chicago Center
07:16PM 42.7189 -85.0008 100° East 565 650 39,000  Level Chicago Center
07:17PM 42.6894 -84.7919 101° East 566 651 39,000  Level Chicago Center
07:18PM 42.6608 -84.5819 100° East 566 651 39,000  Level Chicago Center
07:19PM 42.6239 -84.3758 104° East 567 652 39,000  Level Chicago Center
07:20PM 42.5742 -84.1278 105° East 569 655 39,000  Level Chicago Center
07:21PM 42.5342 -83.9222 105° East 567 652 39,000  Level Chicago Center
07:22PM 42.4756 -83.6417 106° East 565 650 39,000  Level Cleveland Center
07:23PM 42.4319 -83.4344 106° East 563 648 39,000  Level Cleveland Center
07:24PM 42.3925 -83.2367 105° East 561 646 39,000  Level Cleveland Center
07:25PM 42.3489 -83.0217 105° East 562 647 39,000  Level Cleveland Center
07:26PM 42.3072 -82.8181 105° East 562 647 39,000  Level Cleveland Center
07:27PM 42.2642 -82.6156 106° East 562 647 39,000  Level Cleveland Center
07:28PM 42.2217 -82.4147 106° East 559 643 39,000  Level Cleveland Center
07:29PM 42.1783 -82.2144 106° East 558 642 39,000  Level Cleveland Center
07:30PM 42.1267 -81.9781 106° East 557 641 39,000  Level Cleveland Center
07:31PM 42.0822 -81.7775 107° East 553 636 39,000  Level Cleveland Center
07:32PM 42.0378 -81.5739 106° East 558 642 39,000  Level Cleveland Center
07:33PM 41.9917 -81.3717 107° East 559 643 39,000  Level Cleveland Center
07:34PM 41.9464 -81.1694 107° East 557 641 39,000  Level Cleveland Center
07:35PM 41.9025 -80.9675 106° East 557 641 39,000  Level Cleveland Center
07:36PM 41.8553 -80.7667 107° East 557 641 39,000  Level Cleveland Center
07:37PM 41.8092 -80.5639 107° East 560 644 39,000  Level Cleveland Center
07:38PM 41.7625 -80.3622 107° East 560 644 39,000 -300 Level Cleveland Center
07:40PM 41.7139 -80.1600 108° East 563 648 38,400 -840 Descending Cleveland Center
07:41PM 41.6658 -79.9586 108° East 562 647 37,300 -1,020 Descending Cleveland Center
07:42PM 41.6208 -79.7669 107° East 562 647 36,400 -960 Descending Cleveland Center
07:43PM 41.5717 -79.5669 108° East 566 651 35,400 -1,080 Descending Cleveland Center
07:44PM 41.5125 -79.3206 108° East 578 665 34,200 -1,140 Descending Cleveland Center
07:45PM 41.4611 -79.1144 108° East 582 670 33,200 -1,020 Descending Cleveland Center
07:46PM 41.4092 -78.9094 109° East 583 671 32,200 -1,020 Descending Cleveland Center
07:47PM 41.3569 -78.7019 108° East 580 667 31,200 -1,380 Descending Cleveland Center
07:48PM 41.3058 -78.5006 109° East 577 664 29,500 -2,040 Descending Cleveland Center
07:49PM 41.2597 -78.3119 108° East 548 631 27,100 -2,220 Descending Cleveland Center
07:49PM 41.2353 -78.2264 111° Southeast 553 636 26,100 -1,440 Descending New York Center
07:50PM 41.1925 -78.0394 107° East 541 623 25,000 -600 Descending New York Center
07:51PM 41.1564 -77.8456 104° East 534 615 25,000 -300 Level New York Center
07:52PM 41.1178 -77.6514 105° East 540 621 24,400 -900 Descending New York Center
07:53PM 41.0806 -77.4631 105° East 540 621 23,200 -1,560 Descending New York Center
07:54PM 41.0394 -77.2692 106° East 522 601 21,300 -1,800 Descending New York Center
07:55PM 41.0028 -77.0978 106° East 500 575 19,600 -1,680 Descending New York Center
07:56PM 40.9678 -76.9322 106° East 480 552 18,000 -1,020 Descending New York Center
07:57PM 40.9344 -76.7700 105° East 470 541 17,600 -1,080 Descending New York Center
07:58PM 40.9047 -76.6136 104° East 446 513 15,900 -1,800 Descending New York Center
07:59PM 40.8758 -76.4794 106° East 432 497 14,000 -1,980 Descending New York Center
08:00PM 40.8472 -76.3369 105° East 412 474 12,000 -1,980 Descending New York Center
08:01PM 40.8161 -76.1975 106° East 374 430 10,100 -1,560 Descending New York Center
08:02PM 40.7922 -76.0831 105° East 340 391 8,900 -1,440 Descending New York Center
08:03PM 40.7700 -75.9744 105° East 318 366 7,300 -1,500 Descending New York Center
08:04PM 40.7492 -75.8769 106° East 306 352 6,000 -1,320 Descending New York Center
08:05PM 40.7244 -75.7711 107° East 306 352 4,700 -1,020 Descending New York Center
08:06PM 40.7039 -75.6656 104° East 280 322 4,000 -840 Descending New York Center
08:07PM 40.6950 -75.5772 98° East 257 296 3,100 -540 Descending New York Center
08:08PM 40.7331 -75.5117 53° Northeast 218 251 3,000 -60 Descending New York Center
08:09PM 40.7692 -75.4456 54° Northeast 212 244 3,000  Level New York Center
08:10PM 40.8050 -75.3822 53° Northeast 219 252 3,000  Level New York Center
08:11PM 40.8286 -75.3097 67° East 211 243 3,000  Level New York Center
08:12PM 40.7908 -75.2633 137° Southeast 174 200 3,000  Level New York Center
08:13PM 40.7461 -75.2850 200° South 154 177 3,000 -60 Level New York Center
08:14PM 40.7281 -75.3194 235° Southwest 142 163 2,900 -420 Descending New York Center
08:15PM 40.7083 -75.3483 228° Southwest 130 150 2,200 -720 Descending New York Center